NCAR-RAP Real-Time Weather Data

Output produced by METARs form (10 April 2020  07:05 UTC)
found at http://weather.rap.ucar.edu/surface/
 
KGEG 100653Z 21005KT 10SM FEW220 09/M02 A2994 RMK AO2 SLP139 T00941022
KGEG 100553Z 18004KT 10SM SCT220 12/M03 A2994 RMK AO2 SLP140 T01171028 10206 20117 50000
KGEG 100453Z 21006KT 10SM FEW220 13/M03 A2995 RMK AO2 SLP142 T01331028
KGEG 100353Z 22008KT 10SM CLR 14/M02 A2995 RMK AO2 SLP144 T01441017
KGEG 100253Z 20006KT 10SM FEW200 FEW250 16/M02 A2994 RMK AO2 SLP141 T01561017 56012
KGEG 100153Z 24008KT 10SM FEW220 SCT250 19/M03 A2995 RMK AO2 SLP141 T01891028
KGEG 100053Z 24008KT 10SM FEW220 BKN250 20/M04 A2996 RMK AO2 SLP145 T02001039
KGEG 092353Z 25010KT 10SM BKN250 21/M04 A2998 RMK AO2 SLP152 T02061039 10206 20117 56024
KGEG 092253Z 23004KT 10SM FEW250 20/M03 A3001 RMK AO2 SLP160 T02001033
KGEG 092153Z 23005KT 10SM FEW250 19/M03 A3003 RMK AO2 SLP168 T01891033
KGEG 092053Z 28003KT 10SM FEW250 18/M04 A3006 RMK AO2 SLP178 T01831039 58023
KGEG 091953Z 24003KT 10SM FEW250 16/M04 A3008 RMK AO2 SLP190 T01611044
KGEG 091853Z 06003KT 10SM SCT250 15/M04 A3011 RMK AO2 SLP197 T01501039
KGEG 091753Z 07004KT 10SM SCT250 12/M03 A3013 RMK AO2 SLP205 T01171033 10117 20033 58009
KGEG 091653Z 05007KT 10SM BKN250 09/M03 A3014 RMK AO2 SLP213 T00891033
KGEG 091553Z 05005KT 10SM BKN250 07/M03 A3015 RMK AO2 SLP215 T00671033
KGEG 091453Z 07005KT 10SM FEW200 BKN250 05/M03 A3016 RMK AO2 SLP219 T00501033 53000
KGEG 091353Z 06005KT 10SM FEW200 OVC250 03/M04 A3016 RMK AO2 SLP216 T00331039
KGEG 091253Z 05004KT 10SM SCT200 BKN250 04/M04 A3016 RMK AO2 SLP215 T00391044
KGEG 091153Z 00000KT 10SM BKN200 04/M04 A3016 RMK AO2 SLP215 T00391044 10089 20033 58002
KGEG 091053Z 00000KT 10SM BKN200 04/M04 A3017 RMK AO2 SLP218 T00441039